createdAt,value
2019-03-30T00:01:09.697Z,35.90
2019-03-30T00:05:29.063Z,36.10
2019-03-30T00:09:49.157Z,36.10
2019-03-30T00:14:08.497Z,36.10
2019-03-30T00:18:27.651Z,36.10
2019-03-30T00:22:48.584Z,36.30
2019-03-30T00:27:07.954Z,36.80
2019-03-30T00:31:27.174Z,36.50
2019-03-30T00:35:52.057Z,36.60
2019-03-30T00:40:16.950Z,36.50
2019-03-30T00:44:38.020Z,36.60
2019-03-30T00:49:00.423Z,37.00
2019-03-30T00:53:20.184Z,37.40
2019-03-30T00:57:39.545Z,37.20
2019-03-30T01:01:58.734Z,37.30
2019-03-30T01:06:18.881Z,37.10
2019-03-30T01:10:38.221Z,37.20
2019-03-30T01:14:57.267Z,37.10
2019-03-30T01:19:16.383Z,37.30
2019-03-30T01:23:35.337Z,37.40
2019-03-30T01:27:54.746Z,37.30
2019-03-30T01:32:13.869Z,37.40
2019-03-30T01:36:33.138Z,38.20
2019-03-30T01:40:53.493Z,37.60
2019-03-30T01:45:12.715Z,37.70
2019-03-30T01:49:32.084Z,37.90
2019-03-30T01:53:51.531Z,37.80
2019-03-30T01:58:11.232Z,37.90
2019-03-30T02:02:30.481Z,38.20
2019-03-30T02:06:50.168Z,38.80
2019-03-30T02:11:09.234Z,38.70
2019-03-30T02:15:28.310Z,38.90
2019-03-30T02:19:48.506Z,38.60
2019-03-30T02:24:07.557Z,38.70
2019-03-30T02:28:26.519Z,38.60
2019-03-30T02:32:45.496Z,38.60
2019-03-30T02:37:04.527Z,38.70
2019-03-30T02:41:24.862Z,38.60
2019-03-30T02:45:43.866Z,38.80
2019-03-30T02:50:02.881Z,38.90
2019-03-30T02:54:21.851Z,38.80
2019-03-30T02:58:40.854Z,38.90
2019-03-30T03:02:59.836Z,38.90
2019-03-30T03:07:19.281Z,39.10
2019-03-30T03:11:38.855Z,39.00
2019-03-30T03:15:58.257Z,39.10
2019-03-30T03:20:17.519Z,39.10
2019-03-30T03:24:36.656Z,39.20
2019-03-30T03:28:55.921Z,39.20
2019-03-30T03:33:14.961Z,39.40
2019-03-30T03:37:44.628Z,39.30
2019-03-30T03:41:55.123Z,39.40
2019-03-30T03:46:13.999Z,39.70
2019-03-30T03:50:44.080Z,39.70
2019-03-30T03:55:03.283Z,39.70
2019-03-30T03:59:26.091Z,39.70
2019-03-30T04:03:47.429Z,39.90
2019-03-30T04:08:11.945Z,39.90
2019-03-30T04:12:35.582Z,39.90
2019-03-30T04:16:54.559Z,40.10
2019-03-30T04:21:13.857Z,40.20
2019-03-30T04:25:33.619Z,40.10
2019-03-30T04:29:53.108Z,41.00
2019-03-30T04:34:12.084Z,41.00
2019-03-30T04:38:31.491Z,41.50
2019-03-30T04:42:50.468Z,41.30
2019-03-30T04:47:09.802Z,41.30
2019-03-30T04:51:28.749Z,41.40
2019-03-30T04:55:49.522Z,41.40
2019-03-30T05:00:09.205Z,41.50
2019-03-30T05:04:28.169Z,41.50
2019-03-30T05:08:47.566Z,41.60
2019-03-30T05:13:06.735Z,41.60
2019-03-30T05:17:26.377Z,41.70
2019-03-30T05:21:45.706Z,41.70
2019-03-30T05:26:04.738Z,41.80
2019-03-30T05:30:23.781Z,41.90
2019-03-30T05:34:42.822Z,41.90
2019-03-30T05:39:01.822Z,42.20
2019-03-30T05:43:21.486Z,42.30
2019-03-30T05:47:41.384Z,42.30
2019-03-30T05:52:00.708Z,42.20
2019-03-30T05:56:19.723Z,42.50
2019-03-30T06:00:38.704Z,42.50
2019-03-30T06:04:58.912Z,42.50
2019-03-30T06:09:17.961Z,42.70
2019-03-30T06:13:36.971Z,42.90
2019-03-30T06:17:56.960Z,43.00
2019-03-30T06:22:16.226Z,43.00
2019-03-30T06:26:36.232Z,42.30
2019-03-30T06:30:55.267Z,41.90
2019-03-30T06:35:16.332Z,42.40
2019-03-30T06:39:37.150Z,42.80
2019-03-30T06:43:56.264Z,45.30
2019-03-30T06:48:15.454Z,48.00
2019-03-30T06:52:34.814Z,49.00
2019-03-30T06:56:53.698Z,49.50
2019-03-30T07:01:13.061Z,49.80
2019-03-30T07:05:42.078Z,49.70
2019-03-30T07:10:07.425Z,49.70
2019-03-30T07:14:35.833Z,49.50
2019-03-30T07:19:03.046Z,49.10
2019-03-30T07:23:22.071Z,49.10
2019-03-30T07:27:42.784Z,49.00
2019-03-30T07:32:02.138Z,48.40
2019-03-30T07:36:21.342Z,47.50
2019-03-30T07:40:40.752Z,46.90
2019-03-30T07:45:01.201Z,46.40
2019-03-30T07:49:21.457Z,45.50
2019-03-30T07:53:44.700Z,44.70
2019-03-30T07:58:01.905Z,44.00
2019-03-30T08:02:21.316Z,44.20
2019-03-30T08:06:46.891Z,43.60
2019-03-30T08:11:14.463Z,42.40
2019-03-30T08:15:35.904Z,41.80
2019-03-30T08:19:55.031Z,41.40
2019-03-30T08:24:15.304Z,40.60
2019-03-30T08:28:34.757Z,40.20
2019-03-30T08:32:54.391Z,39.90
2019-03-30T08:37:13.941Z,39.50
2019-03-30T08:41:33.012Z,38.60
2019-03-30T08:45:51.973Z,37.90
2019-03-30T08:50:11.433Z,38.00
2019-03-30T08:54:30.361Z,36.90
2019-03-30T08:58:49.526Z,36.60
2019-03-30T09:03:09.151Z,35.90
2019-03-30T09:07:28.056Z,36.00
2019-03-30T09:11:47.109Z,36.00
2019-03-30T09:16:08.387Z,35.60
2019-03-30T09:20:32.988Z,35.60
2019-03-30T09:24:53.326Z,35.90
2019-03-30T09:29:12.400Z,35.40
2019-03-30T09:33:31.372Z,36.00
2019-03-30T09:37:50.411Z,35.00
2019-03-30T09:42:09.535Z,34.90
2019-03-30T09:46:34.546Z,34.20
2019-03-30T09:50:54.841Z,33.70
2019-03-30T09:55:14.656Z,33.10
2019-03-30T09:59:33.685Z,32.60
2019-03-30T10:03:57.246Z,32.30
2019-03-30T10:08:27.242Z,32.20
2019-03-30T10:12:46.738Z,30.30
2019-03-30T10:17:06.508Z,31.40
2019-03-30T10:21:25.991Z,31.30
2019-03-30T10:25:45.011Z,31.10
2019-03-30T10:30:04.377Z,30.70
2019-03-30T10:34:23.499Z,30.10
2019-03-30T10:38:42.673Z,29.10
2019-03-30T10:43:01.686Z,29.20
2019-03-30T10:47:21.133Z,29.10
2019-03-30T10:51:41.571Z,29.10
2019-03-30T10:56:00.685Z,29.10
2019-03-30T11:00:51.236Z,28.60
2019-03-30T11:05:12.184Z,28.20
2019-03-30T11:09:31.758Z,28.30
2019-03-30T11:13:50.701Z,28.20
2019-03-30T11:18:10.124Z,27.80
2019-03-30T11:22:29.632Z,26.60
2019-03-30T11:26:48.733Z,26.70
2019-03-30T11:31:08.729Z,26.20
2019-03-30T11:35:28.150Z,26.10
2019-03-30T11:39:47.217Z,25.70
2019-03-30T11:44:06.215Z,25.60
2019-03-30T11:48:25.484Z,25.70
2019-03-30T11:52:44.660Z,25.20
2019-03-30T11:57:03.947Z,25.00
2019-03-30T12:01:24.114Z,25.20
2019-03-30T12:05:43.078Z,24.90
2019-03-30T12:10:02.393Z,24.40
2019-03-30T12:14:22.077Z,24.10
2019-03-30T12:18:41.149Z,23.80
2019-03-30T12:23:01.019Z,23.00
2019-03-30T12:27:21.054Z,23.40
2019-03-30T12:31:40.033Z,24.20
2019-03-30T12:35:59.078Z,24.30
2019-03-30T12:40:19.461Z,24.20
2019-03-30T12:44:38.611Z,24.20
2019-03-30T12:48:57.601Z,24.30
2019-03-30T12:53:16.539Z,24.10
2019-03-30T12:57:35.943Z,24.00
2019-03-30T13:01:55.793Z,23.90
2019-03-30T13:06:16.334Z,23.80
2019-03-30T13:10:35.246Z,23.70
2019-03-30T13:14:55.419Z,23.80
2019-03-30T13:19:14.772Z,23.80
2019-03-30T13:23:33.825Z,23.80
2019-03-30T13:27:53.737Z,23.30
2019-03-30T13:32:13.110Z,23.40
2019-03-30T13:36:42.548Z,23.50
2019-03-30T13:41:01.616Z,23.30
2019-03-30T13:45:20.462Z,23.10
2019-03-30T13:49:40.553Z,23.50
2019-03-30T13:53:59.584Z,22.80
2019-03-30T13:58:20.487Z,22.90
2019-03-30T14:02:43.837Z,22.80
2019-03-30T14:07:09.050Z,23.00
2019-03-30T14:11:36.882Z,23.10
2019-03-30T14:16:07.673Z,23.20
2019-03-30T14:20:29.237Z,23.20
2019-03-30T14:24:54.052Z,23.20
2019-03-30T14:29:20.756Z,23.20
2019-03-30T14:33:41.830Z,23.30
2019-03-30T14:38:01.185Z,23.30
2019-03-30T14:42:21.533Z,23.40
2019-03-30T14:46:40.474Z,23.50
2019-03-30T14:50:59.768Z,23.60
2019-03-30T14:55:19.539Z,23.50
2019-03-30T14:59:38.411Z,23.30
2019-03-30T15:03:57.927Z,23.70
2019-03-30T15:08:17.705Z,23.70
2019-03-30T15:12:37.377Z,23.70
2019-03-30T15:16:58.764Z,23.80
2019-03-30T15:21:17.708Z,23.80
2019-03-30T15:25:37.677Z,23.90
2019-03-30T15:29:56.535Z,23.90
2019-03-30T15:34:15.535Z,23.90
2019-03-30T15:38:35.880Z,24.00
2019-03-30T15:42:55.461Z,23.90
2019-03-30T15:47:14.567Z,24.10
2019-03-30T15:51:37.385Z,24.10
2019-03-30T15:55:54.772Z,24.10
2019-03-30T16:00:17.802Z,24.20
2019-03-30T16:04:37.105Z,24.20
2019-03-30T16:08:56.387Z,24.20
2019-03-30T16:13:15.425Z,24.20
2019-03-30T16:17:34.890Z,24.30
2019-03-30T16:21:55.395Z,24.40
2019-03-30T16:26:14.287Z,24.40
2019-03-30T16:30:33.761Z,24.90
2019-03-30T16:34:53.701Z,24.60
2019-03-30T16:39:12.871Z,24.60
2019-03-30T16:43:31.873Z,24.60
2019-03-30T16:47:50.818Z,24.60
2019-03-30T16:52:11.015Z,24.70
2019-03-30T16:56:30.140Z,24.60
2019-03-30T17:00:56.190Z,24.70
2019-03-30T17:05:11.190Z,24.60
2019-03-30T17:09:30.658Z,24.70
2019-03-30T17:13:50.394Z,24.80
2019-03-30T17:18:09.366Z,24.90
2019-03-30T17:22:28.371Z,25.00
2019-03-30T17:26:47.727Z,25.00
2019-03-30T17:31:08.027Z,25.10
2019-03-30T17:35:27.522Z,25.10
2019-03-30T17:39:46.677Z,25.20
2019-03-30T17:44:05.970Z,25.40
2019-03-30T17:48:25.622Z,25.30
2019-03-30T17:52:44.799Z,25.40
2019-03-30T17:57:04.188Z,25.40
2019-03-30T18:01:23.249Z,25.50
2019-03-30T18:05:43.393Z,25.60
2019-03-30T18:10:04.376Z,25.70
2019-03-30T18:14:23.338Z,25.80
2019-03-30T18:18:43.527Z,25.90
2019-03-30T18:23:02.550Z,26.00
2019-03-30T18:27:23.886Z,26.00
2019-03-30T18:31:43.029Z,26.10
2019-03-30T18:36:02.604Z,26.30
2019-03-30T18:40:31.404Z,26.30
2019-03-30T18:44:54.189Z,26.40
2019-03-30T18:49:13.486Z,26.40
2019-03-30T18:53:33.206Z,26.50
2019-03-30T18:57:53.730Z,26.70
2019-03-30T19:02:12.781Z,26.70
2019-03-30T19:06:33.581Z,26.90
2019-03-30T19:10:53.581Z,26.90
2019-03-30T19:15:12.682Z,26.90
2019-03-30T19:19:31.793Z,27.00
2019-03-30T19:23:50.793Z,27.10
2019-03-30T19:28:11.299Z,27.10
2019-03-30T19:32:31.081Z,27.10
2019-03-30T19:36:51.030Z,27.20
2019-03-30T19:41:10.366Z,27.30
2019-03-30T19:45:30.904Z,27.40
2019-03-30T19:49:50.250Z,27.60
2019-03-30T19:54:10.093Z,27.60
2019-03-30T19:58:29.161Z,27.70
2019-03-30T20:02:50.418Z,27.70
2019-03-30T20:07:09.424Z,27.90
2019-03-30T20:11:29.039Z,27.80
2019-03-30T20:15:48.064Z,27.90
2019-03-30T20:20:09.521Z,28.00
2019-03-30T20:24:29.404Z,28.10
2019-03-30T20:28:49.195Z,28.20
2019-03-30T20:33:08.123Z,28.40
2019-03-30T20:37:28.690Z,28.40
2019-03-30T20:41:48.026Z,28.70
2019-03-30T20:46:07.157Z,28.70
2019-03-30T20:50:26.895Z,28.70
2019-03-30T20:54:49.387Z,28.80
2019-03-30T20:59:08.526Z,28.90
2019-03-30T21:03:27.588Z,28.90
2019-03-30T21:07:47.273Z,28.90
2019-03-30T21:12:08.821Z,29.00
2019-03-30T21:16:27.874Z,28.90
2019-03-30T21:20:48.835Z,29.10
2019-03-30T21:25:09.145Z,29.10
2019-03-30T21:29:30.001Z,29.20
2019-03-30T21:33:49.958Z,29.20
2019-03-30T21:38:12.011Z,29.30
2019-03-30T21:42:31.724Z,29.30
2019-03-30T21:46:50.917Z,29.40
2019-03-30T21:51:09.964Z,29.50
2019-03-30T21:55:29.440Z,29.60
2019-03-30T21:59:49.109Z,29.70
2019-03-30T22:04:07.973Z,29.80
2019-03-30T22:08:27.228Z,29.90
2019-03-30T22:12:47.578Z,30.00
2019-03-30T22:17:07.265Z,30.00
2019-03-30T22:21:26.431Z,30.00
2019-03-30T22:25:45.390Z,30.00
2019-03-30T22:30:04.852Z,30.10
2019-03-30T22:34:24.394Z,30.30
2019-03-30T22:38:43.405Z,30.40
2019-03-30T22:43:02.461Z,30.60
2019-03-30T22:47:22.062Z,30.70
2019-03-30T22:51:41.034Z,30.60
2019-03-30T22:56:00.471Z,30.80
2019-03-30T23:00:38.968Z,30.80
2019-03-30T23:05:00.154Z,30.70
2019-03-30T23:09:21.394Z,30.80
2019-03-30T23:13:40.283Z,30.90
2019-03-30T23:17:59.413Z,31.00
2019-03-30T23:22:18.368Z,31.00
2019-03-30T23:26:37.851Z,31.10
2019-03-30T23:30:56.663Z,31.10
2019-03-30T23:35:15.661Z,31.20
2019-03-30T23:39:34.714Z,31.30
2019-03-30T23:43:53.794Z,31.40
2019-03-30T23:48:12.745Z,31.60
2019-03-30T23:52:31.718Z,31.60
2019-03-30T23:56:51.076Z,31.70
